createdAt,value
2023-01-12T00:00:00.508Z,101011.40
2023-01-12T00:02:29.851Z,101005.88
2023-01-12T00:04:59.213Z,100996.01
2023-01-12T00:07:29.256Z,100998.97
2023-01-12T00:09:58.480Z,100998.12
2023-01-12T00:12:28.025Z,100986.70
2023-01-12T00:14:57.480Z,100982.60
2023-01-12T00:17:27.002Z,100980.73
2023-01-12T00:19:56.425Z,100979.30
2023-01-12T00:22:25.621Z,100970.50
2023-01-12T00:24:55.969Z,100970.28
2023-01-12T00:27:25.147Z,100959.05
2023-01-12T00:29:54.668Z,100956.03
2023-01-12T00:32:23.990Z,100961.56
2023-01-12T00:34:53.246Z,100953.80
2023-01-12T00:37:24.222Z,100944.15
2023-01-12T00:40:01.857Z,100941.87
2023-01-12T00:42:42.742Z,100948.56
2023-01-12T00:45:25.032Z,100941.89
2023-01-12T00:47:54.699Z,100932.34
2023-01-12T00:50:24.447Z,100926.59
2023-01-12T00:52:53.927Z,100914.10
2023-01-12T00:55:23.420Z,100903.83
2023-01-12T00:57:53.493Z,100906.11
2023-01-12T01:00:22.811Z,100903.02
2023-01-12T01:02:52.105Z,100900.86
2023-01-12T01:05:21.427Z,100879.63
2023-01-12T01:07:50.979Z,100890.95
2023-01-12T01:10:20.591Z,100903.38
2023-01-12T01:12:50.322Z,100894.06
2023-01-12T01:15:19.629Z,100886.05
2023-01-12T01:17:49.101Z,100896.45
2023-01-12T01:20:19.317Z,100890.36
2023-01-12T01:22:48.779Z,100898.47
2023-01-12T01:25:18.383Z,100892.03
2023-01-12T01:27:47.736Z,100895.00
2023-01-12T01:30:17.770Z,100897.38
2023-01-12T01:32:47.253Z,100900.24
2023-01-12T01:35:16.895Z,100897.15
2023-01-12T01:37:46.129Z,100896.08
2023-01-12T01:40:15.444Z,100895.11
2023-01-12T01:42:44.707Z,100892.87
2023-01-12T01:45:16.810Z,100887.50
2023-01-12T01:47:48.922Z,100892.98
2023-01-12T01:50:29.929Z,100883.42
2023-01-12T01:53:02.198Z,100868.13
2023-01-12T01:55:36.942Z,100839.73
2023-01-12T01:58:14.809Z,100858.34
2023-01-12T02:00:45.573Z,100845.72
2023-01-12T02:03:15.503Z,100820.09
2023-01-12T02:05:47.051Z,100824.58
2023-01-12T02:08:19.414Z,100832.95
2023-01-12T02:10:48.915Z,100832.45
2023-01-12T02:13:37.346Z,100816.94
2023-01-12T02:16:21.848Z,100816.94
2023-01-12T02:19:11.090Z,100818.48
2023-01-12T02:21:52.516Z,100808.61
2023-01-12T02:24:39.821Z,100807.76
2023-01-12T02:27:39.609Z,100810.03
2023-01-12T02:30:30.141Z,100790.13
2023-01-12T02:33:08.360Z,100783.30
2023-01-12T02:36:03.250Z,100802.63
2023-01-12T02:38:50.609Z,100781.64
2023-01-12T02:41:55.986Z,100783.69
2023-01-12T02:44:37.287Z,100778.67
2023-01-12T02:47:09.699Z,100767.34
2023-01-12T02:49:42.576Z,100763.89
2023-01-12T02:52:14.389Z,100767.56
2023-01-12T02:54:46.281Z,100755.30
2023-01-12T02:57:16.153Z,100744.69
2023-01-12T02:59:46.636Z,100739.56
2023-01-12T03:02:21.349Z,100727.17
2023-01-12T03:04:51.046Z,100730.73
2023-01-12T03:07:35.271Z,100717.85
2023-01-12T03:10:22.761Z,100708.44
2023-01-12T03:12:52.251Z,100702.84
2023-01-12T03:15:23.103Z,100708.20
2023-01-12T03:17:55.510Z,100705.58
2023-01-12T03:20:32.963Z,100695.94
2023-01-12T03:23:11.422Z,100682.82
2023-01-12T03:25:43.171Z,100666.35
2023-01-12T03:28:14.243Z,100652.42
2023-01-12T03:30:46.484Z,100632.63
2023-01-12T03:33:15.775Z,100635.36
2023-01-12T03:35:54.073Z,100623.31
2023-01-12T03:38:29.386Z,100609.25
2023-01-12T03:41:01.339Z,100593.89
2023-01-12T03:43:33.480Z,100582.66
2023-01-12T03:46:06.069Z,100581.84
2023-01-12T03:48:38.160Z,100569.56
2023-01-12T03:51:13.137Z,100556.09
2023-01-12T03:53:44.014Z,100553.81
2023-01-12T03:56:14.709Z,100552.13
2023-01-12T03:58:44.757Z,100542.63
2023-01-12T04:01:14.796Z,100543.09
2023-01-12T04:03:44.295Z,100524.49
2023-01-12T04:06:13.954Z,100525.34
2023-01-12T04:08:43.307Z,100508.27
2023-01-12T04:11:31.039Z,100472.39
2023-01-12T04:14:00.249Z,100488.13
2023-01-12T04:16:29.749Z,100476.66
2023-01-12T04:18:59.329Z,100484.78
2023-01-12T04:21:46.422Z,100467.83
2023-01-12T04:24:15.776Z,100482.38
2023-01-12T04:26:45.791Z,100499.68
2023-01-12T04:29:15.414Z,100490.50
2023-01-12T04:31:44.694Z,100485.69
2023-01-12T04:34:14.238Z,100478.79
2023-01-12T04:36:44.201Z,100433.81
2023-01-12T04:39:13.599Z,100476.88
2023-01-12T04:41:43.064Z,100464.02
2023-01-12T04:44:12.721Z,100458.99
2023-01-12T04:46:41.927Z,100463.17
2023-01-12T04:49:11.392Z,100460.77
2023-01-12T04:51:40.581Z,100469.48
2023-01-12T04:54:11.256Z,100466.52
2023-01-12T04:56:40.646Z,100465.20
2023-01-12T04:59:10.835Z,100482.38
2023-01-12T05:01:40.537Z,100458.15
2023-01-12T05:04:10.207Z,100461.39
2023-01-12T05:06:40.007Z,100465.45
2023-01-12T05:09:28.201Z,100431.11
2023-01-12T05:11:57.631Z,100459.45
2023-01-12T05:14:26.854Z,100436.81
2023-01-12T05:16:56.652Z,100459.83
2023-01-12T05:19:25.939Z,100450.87
2023-01-12T05:21:55.116Z,100445.66
2023-01-12T05:24:24.352Z,100441.56
2023-01-12T05:26:53.727Z,100443.13
2023-01-12T05:29:23.084Z,100437.16
2023-01-12T05:31:52.449Z,100428.19
2023-01-12T05:34:21.861Z,100439.06
2023-01-12T05:36:51.336Z,100438.59
2023-01-12T05:39:21.846Z,100442.66
2023-01-12T05:42:09.091Z,100438.00
2023-01-12T05:44:38.328Z,100442.03
2023-01-12T05:47:07.514Z,100433.31
2023-01-12T05:49:36.871Z,100431.78
2023-01-12T05:52:06.127Z,100436.78
2023-01-12T05:54:35.748Z,100442.11
2023-01-12T05:57:05.001Z,100434.88
2023-01-12T05:59:34.241Z,100426.62
2023-01-12T06:02:03.510Z,100425.77
2023-01-12T06:04:32.822Z,100424.33
2023-01-12T06:07:02.357Z,100416.20
2023-01-12T06:09:31.664Z,100424.24
2023-01-12T06:12:19.114Z,100437.11
2023-01-12T06:14:48.379Z,100431.56
2023-01-12T06:17:17.645Z,100428.98
2023-01-12T06:19:47.076Z,100426.55
2023-01-12T06:22:16.283Z,100442.97
2023-01-12T06:24:47.328Z,100432.34
2023-01-12T06:27:17.453Z,100416.72
2023-01-12T06:29:46.849Z,100412.05
2023-01-12T06:32:16.155Z,100426.34
2023-01-12T06:34:45.710Z,100429.56
2023-01-12T06:37:15.371Z,100440.07
2023-01-12T06:39:44.619Z,100423.87
2023-01-12T06:42:28.989Z,100429.97
2023-01-12T06:44:59.027Z,100450.50
2023-01-12T06:47:30.350Z,100437.84
2023-01-12T06:49:59.690Z,100454.05
2023-01-12T06:52:30.364Z,100452.88
2023-01-12T06:54:59.897Z,100445.78
2023-01-12T06:57:29.399Z,100446.48
2023-01-12T06:59:58.881Z,100439.29
2023-01-12T07:02:28.214Z,100432.05
2023-01-12T07:04:57.429Z,100457.47
2023-01-12T07:07:26.729Z,100445.98
2023-01-12T07:09:56.570Z,100456.81
2023-01-12T07:12:25.797Z,100479.86
2023-01-12T07:14:56.296Z,100469.82
2023-01-12T07:17:25.676Z,100479.48
2023-01-12T07:19:55.281Z,100473.63
2023-01-12T07:22:26.542Z,100477.23
2023-01-12T07:24:57.776Z,100473.47
2023-01-12T07:27:27.206Z,100477.52
2023-01-12T07:29:56.980Z,100476.55
2023-01-12T07:32:29.617Z,100476.92
2023-01-12T07:34:59.387Z,100479.62
2023-01-12T07:37:28.616Z,100492.16
2023-01-12T07:39:59.161Z,100491.89
2023-01-12T07:42:28.592Z,100488.36
2023-01-12T07:44:59.031Z,100507.80
2023-01-12T07:47:28.238Z,100495.20
2023-01-12T07:49:57.584Z,100491.70
2023-01-12T07:52:26.795Z,100503.27
2023-01-12T07:54:56.779Z,100496.22
2023-01-12T07:57:26.089Z,100493.94
2023-01-12T07:59:55.294Z,100503.23
2023-01-12T08:02:24.588Z,100517.73
2023-01-12T08:04:54.772Z,100516.67
2023-01-12T08:07:24.292Z,100502.92
2023-01-12T08:09:53.493Z,100488.01
2023-01-12T08:12:22.718Z,100488.58
2023-01-12T08:14:51.913Z,100501.52
2023-01-12T08:17:22.678Z,100513.90
2023-01-12T08:20:01.074Z,100510.86
2023-01-12T08:22:34.083Z,100523.23
2023-01-12T08:25:06.374Z,100516.63
2023-01-12T08:27:37.970Z,100521.16
2023-01-12T08:30:08.634Z,100520.38
2023-01-12T08:32:38.056Z,100529.45
2023-01-12T08:35:08.109Z,100523.86
2023-01-12T08:37:37.804Z,100522.27
2023-01-12T08:40:08.264Z,100523.25
2023-01-12T08:42:37.780Z,100523.25
2023-01-12T08:45:08.139Z,100524.63
2023-01-12T08:47:37.843Z,100516.95
2023-01-12T08:50:08.964Z,100531.98
2023-01-12T08:52:38.281Z,100531.17
2023-01-12T08:55:10.113Z,100532.96
2023-01-12T08:57:39.811Z,100532.86
2023-01-12T09:00:10.460Z,100538.66
2023-01-12T09:02:39.822Z,100542.23
2023-01-12T09:05:10.077Z,100541.29
2023-01-12T09:07:39.851Z,100549.69
2023-01-12T09:10:09.905Z,100543.48
2023-01-12T09:12:39.117Z,100552.25
2023-01-12T09:15:09.233Z,100540.14
2023-01-12T09:17:38.847Z,100564.42
2023-01-12T09:20:08.669Z,100564.66
2023-01-12T09:22:38.101Z,100570.27
2023-01-12T09:25:07.610Z,100574.34
2023-01-12T09:27:36.848Z,100566.69
2023-01-12T09:30:07.791Z,100577.88
2023-01-12T09:32:37.285Z,100573.00
2023-01-12T09:35:07.133Z,100575.56
2023-01-12T09:37:38.063Z,100589.32
2023-01-12T09:40:08.629Z,100589.42
2023-01-12T09:42:56.511Z,100588.72
2023-01-12T09:45:44.661Z,100595.63
2023-01-12T09:48:15.230Z,100594.31
2023-01-12T09:50:47.870Z,100603.39
2023-01-12T09:53:26.799Z,100606.02
2023-01-12T09:56:03.139Z,100611.52
2023-01-12T09:59:06.353Z,100612.34
2023-01-12T10:01:35.640Z,100623.36
2023-01-12T10:04:05.021Z,100628.13
2023-01-12T10:06:35.619Z,100631.59
2023-01-12T10:09:09.179Z,100634.23
2023-01-12T10:11:56.226Z,100629.30
2023-01-12T10:14:46.063Z,100631.59
2023-01-12T10:17:23.404Z,100633.63
2023-01-12T10:20:11.388Z,100635.27
2023-01-12T10:22:55.593Z,100618.88
2023-01-12T10:25:48.927Z,100619.83
2023-01-12T10:28:33.600Z,100620.53
2023-01-12T10:31:03.167Z,100624.01
2023-01-12T10:33:34.552Z,100624.95
2023-01-12T10:36:20.709Z,100622.56
2023-01-12T10:39:02.497Z,100628.66
2023-01-12T10:41:34.412Z,100626.98
2023-01-12T10:44:17.328Z,100625.53
2023-01-12T10:46:49.830Z,100631.64
2023-01-12T10:49:24.328Z,100616.95
2023-01-12T10:51:58.805Z,100622.83
2023-01-12T10:54:33.593Z,100622.33
2023-01-12T10:57:06.418Z,100632.75
2023-01-12T10:59:38.578Z,100616.32
2023-01-12T11:02:14.519Z,100620.98
2023-01-12T11:04:48.829Z,100622.09
2023-01-12T11:07:22.961Z,100622.16
2023-01-12T11:09:52.411Z,100628.60
2023-01-12T11:12:33.856Z,100625.84
2023-01-12T11:15:12.387Z,100633.53
2023-01-12T11:18:12.351Z,100626.31
2023-01-12T11:20:50.852Z,100628.60
2023-01-12T11:23:38.522Z,100623.47
2023-01-12T11:26:16.077Z,100622.77
2023-01-12T11:28:48.489Z,100618.01
2023-01-12T11:31:26.756Z,100619.80
2023-01-12T11:34:02.157Z,100634.47
2023-01-12T11:36:42.500Z,100625.63
2023-01-12T11:39:14.298Z,100603.73
2023-01-12T11:42:13.625Z,100613.86
2023-01-12T11:45:04.016Z,100616.49
2023-01-12T11:47:41.549Z,100612.41
2023-01-12T11:50:30.570Z,100611.23
2023-01-12T11:56:11.098Z,100608.94
2023-01-12T11:59:01.033Z,100607.62
2023-01-12T12:01:46.137Z,100605.39
2023-01-12T12:04:30.238Z,100594.39
2023-01-12T12:07:05.410Z,100585.17
2023-01-12T12:10:00.962Z,100582.61
2023-01-12T12:12:48.735Z,100587.07
2023-01-12T12:15:30.205Z,100586.23
2023-01-12T12:18:03.211Z,100579.03
2023-01-12T12:20:38.393Z,100582.20
2023-01-12T12:23:23.157Z,100580.12
2023-01-12T12:25:55.536Z,100565.23
2023-01-12T12:28:47.360Z,100565.61
2023-01-12T12:31:42.734Z,100556.19
2023-01-12T12:34:33.205Z,100531.55
2023-01-12T12:37:14.547Z,100562.09
2023-01-12T12:40:02.487Z,100546.91
2023-01-12T12:43:04.351Z,100549.03
2023-01-12T12:45:51.636Z,100537.14
2023-01-12T12:48:32.963Z,100533.95
2023-01-12T12:51:08.055Z,100543.02
2023-01-12T12:53:41.927Z,100540.39
2023-01-12T12:56:14.305Z,100538.30
2023-01-12T12:58:46.162Z,100538.03
2023-01-12T13:01:24.826Z,100532.91
2023-01-12T13:03:56.336Z,100538.16
2023-01-12T13:06:39.758Z,100535.20
2023-01-12T13:09:15.178Z,100535.39
2023-01-12T13:11:54.598Z,100531.39
2023-01-12T13:14:41.510Z,100520.22
2023-01-12T13:17:25.960Z,100536.52
2023-01-12T13:20:16.621Z,100526.94
2023-01-12T13:22:44.925Z,100519.88
2023-01-12T13:25:23.918Z,100527.20
2023-01-12T13:28:02.016Z,100519.17
2023-01-12T13:30:35.260Z,100521.47
2023-01-12T13:33:25.005Z,100508.31
2023-01-12T13:36:03.169Z,100515.16
2023-01-12T13:38:42.871Z,100514.19
2023-01-12T13:41:19.619Z,100516.81
2023-01-12T13:43:55.020Z,100515.71
2023-01-12T13:46:30.139Z,100500.77
2023-01-12T13:49:00.394Z,100512.81
2023-01-12T13:51:40.677Z,100502.55
2023-01-12T13:54:14.862Z,100498.61
2023-01-12T13:56:44.432Z,100489.26
2023-01-12T13:59:18.901Z,100504.84
2023-01-12T14:01:49.854Z,100502.62
2023-01-12T14:04:22.778Z,100503.03
2023-01-12T14:07:23.073Z,100507.48
2023-01-12T14:10:19.279Z,100497.09
2023-01-12T14:13:21.363Z,100502.13
2023-01-12T14:16:08.658Z,100495.34
2023-01-12T14:18:45.956Z,100502.67
2023-01-12T14:21:24.604Z,100497.07
2023-01-12T14:23:54.916Z,100500.45
2023-01-12T14:26:27.249Z,100498.29
2023-01-12T14:28:56.696Z,100489.92
2023-01-12T14:31:40.154Z,100492.08
2023-01-12T14:34:24.565Z,100490.39
2023-01-12T14:36:53.896Z,100491.64
2023-01-12T14:39:25.818Z,100477.66
2023-01-12T14:42:14.666Z,100486.86
2023-01-12T14:45:15.268Z,100475.59
2023-01-12T14:47:44.490Z,100482.10
2023-01-12T14:50:16.620Z,100480.98
2023-01-12T14:52:47.010Z,100487.91
2023-01-12T14:55:22.017Z,100475.30
2023-01-12T14:57:54.991Z,100480.69
2023-01-12T15:00:26.828Z,100478.06
2023-01-12T15:02:58.048Z,100479.98
2023-01-12T15:05:29.122Z,100477.48
2023-01-12T15:08:07.852Z,100473.07
2023-01-12T15:10:39.860Z,100473.00
2023-01-12T15:13:30.489Z,100468.55
2023-01-12T15:16:18.835Z,100465.25
2023-01-12T15:19:05.968Z,100459.28
2023-01-12T15:21:54.086Z,100462.48
2023-01-12T15:24:43.891Z,100453.18
2023-01-12T15:27:15.138Z,100456.31
2023-01-12T15:29:44.598Z,100458.71
2023-01-12T15:32:46.990Z,100449.38
2023-01-12T15:35:09.396Z,100446.61
2023-01-12T15:37:38.602Z,100455.95
2023-01-12T15:40:09.479Z,100455.00
2023-01-12T15:42:38.987Z,100436.09
2023-01-12T15:45:17.040Z,100434.23
2023-01-12T15:47:47.922Z,100439.28
2023-01-12T15:50:17.468Z,100442.76
2023-01-12T15:52:48.606Z,100445.11
2023-01-12T15:55:20.232Z,100445.86
2023-01-12T15:57:51.429Z,100443.73
2023-01-12T16:00:22.483Z,100440.95
2023-01-12T16:02:53.170Z,100439.21
2023-01-12T16:05:24.102Z,100431.69
2023-01-12T16:07:53.495Z,100434.89
2023-01-12T16:10:23.452Z,100447.81
2023-01-12T16:12:52.671Z,100455.42
2023-01-12T16:15:24.535Z,100445.53
2023-01-12T16:17:53.816Z,100447.53
2023-01-12T16:20:23.300Z,100446.02
2023-01-12T16:22:52.720Z,100443.69
2023-01-12T16:25:22.501Z,100460.52
2023-01-12T16:27:52.181Z,100463.75
2023-01-12T16:30:21.903Z,100454.41
2023-01-12T16:32:51.555Z,100476.43
2023-01-12T16:35:21.352Z,100458.49
2023-01-12T16:37:54.772Z,100456.20
2023-01-12T16:40:24.467Z,100460.65
2023-01-12T16:42:54.057Z,100457.65
2023-01-12T16:45:23.535Z,100455.25
2023-01-12T16:47:54.386Z,100461.39
2023-01-12T16:50:23.963Z,100459.23
2023-01-12T16:52:53.727Z,100458.29
2023-01-12T16:55:23.280Z,100458.63
2023-01-12T16:57:52.903Z,100462.91
2023-01-12T17:00:22.781Z,100459.74
2023-01-12T17:02:52.507Z,100450.13
2023-01-12T17:05:22.437Z,100460.78
2023-01-12T17:07:54.280Z,100452.52
2023-01-12T17:10:23.804Z,100437.11
2023-01-12T17:12:59.029Z,100453.93
2023-01-12T17:15:25.310Z,100453.16
2023-01-12T17:17:55.557Z,100444.63
2023-01-12T17:20:25.376Z,100443.73
2023-01-12T17:22:54.868Z,100435.42
2023-01-12T17:25:24.319Z,100435.09
2023-01-12T17:27:54.253Z,100437.38
2023-01-12T17:30:23.477Z,100435.66
2023-01-12T17:32:53.151Z,100443.11
2023-01-12T17:35:22.699Z,100443.95
2023-01-12T17:37:52.006Z,100450.13
2023-01-12T17:40:22.177Z,100447.00
2023-01-12T17:43:03.201Z,100459.60
2023-01-12T17:45:33.718Z,100465.27
2023-01-12T17:48:02.972Z,100468.03
2023-01-12T17:50:32.607Z,100466.38
2023-01-12T17:53:01.942Z,100453.98
2023-01-12T17:55:31.702Z,100461.73
2023-01-12T17:58:00.947Z,100452.75
2023-01-12T18:00:30.627Z,100454.88
2023-01-12T18:03:00.472Z,100444.45
2023-01-12T18:05:31.580Z,100454.61
2023-01-12T18:08:01.263Z,100456.08
2023-01-12T18:10:30.500Z,100460.63
2023-01-12T18:12:59.777Z,100456.48
2023-01-12T18:15:29.690Z,100458.00
2023-01-12T18:17:58.953Z,100461.00
2023-01-12T18:20:28.215Z,100450.19
2023-01-12T18:22:57.544Z,100449.77
2023-01-12T18:25:27.204Z,100443.69
2023-01-12T18:27:56.513Z,100446.58
2023-01-12T18:30:27.331Z,100454.06
2023-01-12T18:32:56.602Z,100452.11
2023-01-12T18:35:26.412Z,100450.11
2023-01-12T18:37:55.725Z,100443.67
2023-01-12T18:40:25.315Z,100448.80
2023-01-12T18:42:55.730Z,100444.59
2023-01-12T18:45:26.152Z,100441.81
2023-01-12T18:48:13.658Z,100444.36
2023-01-12T18:51:01.466Z,100444.78
2023-01-12T18:53:32.553Z,100441.73
2023-01-12T18:56:05.939Z,100437.17
2023-01-12T18:58:37.200Z,100425.48
2023-01-12T19:01:08.534Z,100439.80
2023-01-12T19:03:38.135Z,100442.48
2023-01-12T19:06:26.153Z,100435.58
2023-01-12T19:09:14.364Z,100444.17
2023-01-12T19:11:43.722Z,100448.45
2023-01-12T19:14:31.205Z,100460.16
2023-01-12T19:17:18.332Z,100474.57
2023-01-12T19:19:48.197Z,100463.48
2023-01-12T19:22:35.699Z,100457.94
2023-01-12T19:25:24.101Z,100461.13
2023-01-12T19:28:11.177Z,100448.67
2023-01-12T19:30:40.790Z,100449.89
2023-01-12T19:33:16.265Z,100434.19
2023-01-12T19:35:47.103Z,100422.89
2023-01-12T19:38:16.820Z,100410.22
2023-01-12T19:40:48.364Z,100399.22
2023-01-12T19:43:20.934Z,100405.09
2023-01-12T19:45:53.838Z,100405.86
2023-01-12T19:48:25.223Z,100409.33
2023-01-12T19:50:54.943Z,100390.92
2023-01-12T19:53:28.554Z,100396.18
2023-01-12T19:55:58.783Z,100388.16
2023-01-12T19:58:28.656Z,100389.13
2023-01-12T20:00:58.158Z,100390.37
2023-01-12T20:03:27.576Z,100379.14
2023-01-12T20:05:57.221Z,100384.97
2023-01-12T20:08:26.966Z,100378.67
2023-01-12T20:10:58.707Z,100386.48
2023-01-12T20:13:28.671Z,100376.85
2023-01-12T20:15:58.158Z,100361.02
2023-01-12T20:18:27.678Z,100373.89
2023-01-12T20:20:58.870Z,100366.98
2023-01-12T20:23:29.111Z,100368.20
2023-01-12T20:25:59.559Z,100367.92
2023-01-12T20:28:28.950Z,100354.72
2023-01-12T20:30:59.469Z,100358.30
2023-01-12T20:33:28.822Z,100355.13
2023-01-12T20:35:58.458Z,100355.05
2023-01-12T20:38:27.868Z,100360.17
2023-01-12T20:40:57.193Z,100362.89
2023-01-12T20:43:26.791Z,100361.16
2023-01-12T20:45:56.279Z,100351.72
2023-01-12T20:48:27.746Z,100346.73
2023-01-12T20:50:57.661Z,100361.00
2023-01-12T20:53:28.902Z,100362.59
2023-01-12T20:55:58.507Z,100364.66
2023-01-12T20:58:27.834Z,100371.10
2023-01-12T21:00:57.429Z,100380.17
2023-01-12T21:03:26.894Z,100388.29
2023-01-12T21:05:56.232Z,100380.73
2023-01-12T21:08:25.559Z,100364.34
2023-01-12T21:10:55.546Z,100385.11
2023-01-12T21:13:24.762Z,100390.64
2023-01-12T21:16:01.765Z,100381.64
2023-01-12T21:18:32.037Z,100390.66
2023-01-12T21:21:01.793Z,100399.45
2023-01-12T21:23:31.220Z,100363.84
2023-01-12T21:26:01.012Z,100383.94
2023-01-12T21:28:30.803Z,100387.94
2023-01-12T21:31:04.205Z,100385.87
2023-01-12T21:33:33.704Z,100393.28
2023-01-12T21:36:03.067Z,100398.41
2023-01-12T21:38:32.460Z,100392.64
2023-01-12T21:41:04.083Z,100401.80
2023-01-12T21:43:34.941Z,100389.25
2023-01-12T21:46:07.119Z,100407.34
2023-01-12T21:48:37.277Z,100415.23
2023-01-12T21:51:08.930Z,100406.70
2023-01-12T21:53:38.543Z,100401.04
2023-01-12T21:56:08.160Z,100414.80
2023-01-12T21:58:38.195Z,100407.89
2023-01-12T22:01:15.393Z,100410.16
2023-01-12T22:03:45.332Z,100420.20
2023-01-12T22:06:14.847Z,100413.43
2023-01-12T22:08:44.360Z,100400.97
2023-01-12T22:11:16.711Z,100405.94
2023-01-12T22:13:47.126Z,100409.31
2023-01-12T22:16:16.809Z,100416.23
2023-01-12T22:18:49.555Z,100413.84
2023-01-12T22:21:20.786Z,100400.84
2023-01-12T22:23:50.583Z,100394.79
2023-01-12T22:26:20.195Z,100412.96
2023-01-12T22:28:50.761Z,100421.67
2023-01-12T22:31:22.554Z,100410.41
2023-01-12T22:33:56.404Z,100389.08
2023-01-12T22:36:26.266Z,100395.85
2023-01-12T22:38:56.213Z,100411.49
2023-01-12T22:41:26.159Z,100415.13
2023-01-12T22:43:56.444Z,100427.80
2023-01-12T22:46:28.117Z,100435.19
2023-01-12T22:49:00.393Z,100406.67
2023-01-12T22:51:31.407Z,100420.69
2023-01-12T22:54:01.788Z,100418.92
2023-01-12T22:56:31.026Z,100421.00
2023-01-12T22:59:00.539Z,100422.26
2023-01-12T23:01:29.707Z,100434.61
2023-01-12T23:03:59.587Z,100436.14
2023-01-12T23:06:28.773Z,100427.99
2023-01-12T23:08:58.144Z,100407.42
2023-01-12T23:11:27.782Z,100434.95
2023-01-12T23:13:57.346Z,100431.06
2023-01-12T23:16:27.174Z,100442.25
2023-01-12T23:18:56.863Z,100442.44
2023-01-12T23:21:28.757Z,100440.94
2023-01-12T23:24:00.021Z,100441.27
2023-01-12T23:26:31.840Z,100447.17
2023-01-12T23:29:03.237Z,100447.63
2023-01-12T23:31:34.064Z,100436.45
2023-01-12T23:34:04.084Z,100435.40
2023-01-12T23:36:33.256Z,100447.87
2023-01-12T23:39:04.596Z,100435.91
2023-01-12T23:41:35.812Z,100430.84
2023-01-12T23:44:07.691Z,100429.92
2023-01-12T23:46:40.247Z,100410.50
2023-01-12T23:49:08.773Z,100423.87
2023-01-12T23:51:37.859Z,100430.73
2023-01-12T23:54:07.567Z,100427.50
2023-01-12T23:56:36.828Z,100419.17
2023-01-12T23:59:05.998Z,100419.77
